createdAt,value
2022-11-22T00:00:47.308Z,41.50
2022-11-22T00:01:28.333Z,36.17
2022-11-22T00:02:08.342Z,35.71
2022-11-22T00:02:48.370Z,35.54
2022-11-22T00:03:28.255Z,35.24
2022-11-22T00:04:08.334Z,35.09
2022-11-22T00:04:48.262Z,35.14
2022-11-22T00:05:28.321Z,33.51
2022-11-22T00:06:09.321Z,35.47
2022-11-22T00:06:49.395Z,36.19
2022-11-22T00:07:29.351Z,37.28
2022-11-22T00:08:10.364Z,36.16
2022-11-22T00:08:51.321Z,34.64
2022-11-22T00:09:31.515Z,35.61
2022-11-22T00:10:17.269Z,37.49
2022-11-22T00:10:58.322Z,37.83
2022-11-22T00:11:38.297Z,38.72
2022-11-22T00:12:18.322Z,38.61
2022-11-22T00:12:58.273Z,37.61
2022-11-22T00:13:38.439Z,37.75
2022-11-22T00:14:18.275Z,37.78
2022-11-22T00:14:58.340Z,40.05
2022-11-22T00:15:39.278Z,38.97
2022-11-22T00:16:19.312Z,37.15
2022-11-22T00:16:59.295Z,39.91
2022-11-22T00:17:40.369Z,39.78
2022-11-22T00:18:20.244Z,39.34
2022-11-22T00:19:14.272Z,41.04
2022-11-22T00:20:08.277Z,41.09
2022-11-22T00:21:02.257Z,40.58
2022-11-22T00:21:56.266Z,43.38
2022-11-22T00:22:44.056Z,40.89
2022-11-22T00:23:25.316Z,42.29
2022-11-22T00:24:06.259Z,43.69
2022-11-22T00:24:46.377Z,41.06
2022-11-22T00:25:26.273Z,37.46
2022-11-22T00:26:11.776Z,39.04
2022-11-22T00:26:51.258Z,40.63
2022-11-22T00:27:31.288Z,42.26
2022-11-22T00:28:11.283Z,41.69
2022-11-22T00:28:51.348Z,42.01
2022-11-22T00:29:31.447Z,39.04
2022-11-22T00:30:12.308Z,38.30
2022-11-22T00:30:53.272Z,36.69
2022-11-22T00:31:33.280Z,34.39
2022-11-22T00:32:13.253Z,35.03
2022-11-22T00:32:54.380Z,33.90
2022-11-22T00:33:35.273Z,35.86
2022-11-22T00:34:15.318Z,33.66
2022-11-22T00:34:55.258Z,29.09
2022-11-22T00:35:37.332Z,26.96
2022-11-22T00:36:18.241Z,26.25
2022-11-22T00:36:58.305Z,28.01
2022-11-22T00:37:39.243Z,27.69
2022-11-22T00:38:19.276Z,27.13
2022-11-22T00:39:00.270Z,28.65
2022-11-22T00:39:40.302Z,25.77
2022-11-22T00:40:20.263Z,23.31
2022-11-22T00:41:00.287Z,22.45
2022-11-22T00:41:40.232Z,23.67
2022-11-22T00:42:20.318Z,24.94
2022-11-22T00:43:01.225Z,25.63
2022-11-22T00:43:41.348Z,24.71
2022-11-22T00:44:21.262Z,26.69
2022-11-22T00:45:01.331Z,25.50
2022-11-22T00:45:41.289Z,25.11
2022-11-22T00:46:21.297Z,26.36
2022-11-22T00:47:02.258Z,25.79
2022-11-22T00:47:43.276Z,24.86
2022-11-22T00:48:23.247Z,25.86
2022-11-22T00:49:03.280Z,24.89
2022-11-22T00:49:43.232Z,23.04
2022-11-22T00:50:23.243Z,23.36
2022-11-22T00:51:03.216Z,22.75
2022-11-22T00:51:43.271Z,22.40
2022-11-22T00:52:24.227Z,20.01
2022-11-22T00:53:04.371Z,19.29
2022-11-22T00:53:44.227Z,21.79
2022-11-22T00:54:24.285Z,22.94
2022-11-22T00:55:04.278Z,24.76
2022-11-22T00:55:44.259Z,26.06
2022-11-22T00:56:24.214Z,27.30
2022-11-22T00:57:05.247Z,30.23
2022-11-22T00:57:45.211Z,34.80
2022-11-22T00:58:25.321Z,33.96
2022-11-22T00:59:06.235Z,31.92
2022-11-22T00:59:46.395Z,28.59
2022-11-22T01:00:27.239Z,28.66
2022-11-22T01:01:07.306Z,29.89
2022-11-22T01:01:48.214Z,27.45
2022-11-22T01:02:28.284Z,26.96
2022-11-22T01:03:08.200Z,28.60
2022-11-22T01:03:48.260Z,27.24
2022-11-22T01:04:28.217Z,24.69
2022-11-22T01:05:08.275Z,24.39
2022-11-22T01:05:48.262Z,26.11
2022-11-22T01:06:28.269Z,24.88
2022-11-22T01:07:08.278Z,25.19
2022-11-22T01:08:02.249Z,24.51
2022-11-22T01:08:56.235Z,23.81
2022-11-22T01:09:50.206Z,23.71
2022-11-22T01:10:44.183Z,22.33
2022-11-22T01:11:26.266Z,22.50
2022-11-22T01:12:06.284Z,22.71
2022-11-22T01:12:46.228Z,23.98
2022-11-22T01:13:26.269Z,22.75
2022-11-22T01:14:07.195Z,21.81
2022-11-22T01:14:47.244Z,22.44
2022-11-22T01:15:27.192Z,23.15
2022-11-22T01:16:14.403Z,23.45
2022-11-22T01:16:55.236Z,24.63
2022-11-22T01:17:35.214Z,24.01
2022-11-22T01:18:15.207Z,23.09
2022-11-22T01:18:55.289Z,22.41
2022-11-22T01:19:36.211Z,23.98
2022-11-22T01:20:17.281Z,23.26
2022-11-22T01:20:58.212Z,23.92
2022-11-22T01:21:38.271Z,24.33
2022-11-22T01:22:20.213Z,23.83
2022-11-22T01:23:00.251Z,22.79
2022-11-22T01:23:41.196Z,23.21
2022-11-22T01:24:21.239Z,23.25
2022-11-22T01:25:01.266Z,23.26
2022-11-22T01:25:42.329Z,22.45
2022-11-22T01:26:22.220Z,20.80
2022-11-22T01:27:02.264Z,20.99
2022-11-22T01:27:43.218Z,22.75
2022-11-22T01:28:24.242Z,20.49
2022-11-22T01:29:04.180Z,19.15
2022-11-22T01:29:44.238Z,18.67
2022-11-22T01:30:25.162Z,18.64
2022-11-22T01:31:05.203Z,18.73
2022-11-22T01:31:45.230Z,18.99
2022-11-22T01:32:25.436Z,20.17
2022-11-22T01:33:05.212Z,21.19
2022-11-22T01:33:45.293Z,21.25
2022-11-22T01:34:25.200Z,18.85
2022-11-22T01:35:06.245Z,18.81
2022-11-22T01:35:46.172Z,20.79
2022-11-22T01:36:26.240Z,21.11
2022-11-22T01:37:06.169Z,20.26
2022-11-22T01:37:46.256Z,19.64
2022-11-22T01:38:26.217Z,19.92
2022-11-22T01:39:06.292Z,18.89
2022-11-22T01:39:47.171Z,18.61
2022-11-22T01:40:27.280Z,18.35
2022-11-22T01:41:07.203Z,18.24
2022-11-22T01:41:47.217Z,17.76
2022-11-22T01:42:27.157Z,16.70
2022-11-22T01:43:08.208Z,16.85
2022-11-22T01:43:48.204Z,17.55
2022-11-22T01:44:36.289Z,17.27
2022-11-22T01:45:38.190Z,17.45
2022-11-22T01:46:46.326Z,17.52
2022-11-22T01:47:29.163Z,16.31
2022-11-22T01:48:30.229Z,16.09
2022-11-22T01:49:24.165Z,16.60
2022-11-22T01:50:08.185Z,16.63
2022-11-22T01:50:51.208Z,16.55
2022-11-22T01:51:43.215Z,16.04
2022-11-22T01:52:26.159Z,15.84
2022-11-22T01:53:26.234Z,16.26
2022-11-22T01:54:13.219Z,16.98
2022-11-22T01:55:02.172Z,17.94
2022-11-22T01:55:37.346Z,17.75
2022-11-22T01:56:26.327Z,16.60
2022-11-22T01:57:06.296Z,15.31
2022-11-22T01:57:54.151Z,16.15
2022-11-22T01:58:28.204Z,15.81
2022-11-22T01:59:21.176Z,15.38
2022-11-22T02:00:00.365Z,16.15
2022-11-22T02:00:41.282Z,15.59
2022-11-22T02:01:21.296Z,14.71
2022-11-22T02:02:02.147Z,15.88
2022-11-22T02:02:43.210Z,16.83
2022-11-22T02:03:24.157Z,16.73
2022-11-22T02:04:06.227Z,17.13
2022-11-22T02:04:47.157Z,17.77
2022-11-22T02:05:31.246Z,17.02
2022-11-22T02:06:12.179Z,17.34
2022-11-22T02:07:22.257Z,16.38
2022-11-22T02:08:18.158Z,16.56
2022-11-22T02:09:07.183Z,17.35
2022-11-22T02:09:48.175Z,18.02
2022-11-22T02:10:30.199Z,19.31
2022-11-22T02:11:11.157Z,19.09
2022-11-22T02:11:57.164Z,20.04
2022-11-22T02:12:35.204Z,20.34
2022-11-22T02:13:23.143Z,20.01
2022-11-22T02:13:58.172Z,18.96
2022-11-22T02:14:46.131Z,18.15
2022-11-22T02:15:20.261Z,17.50
2022-11-22T02:16:07.146Z,17.61
2022-11-22T02:16:49.188Z,17.35
2022-11-22T02:17:43.154Z,17.55
2022-11-22T02:18:37.141Z,18.45
2022-11-22T02:20:06.139Z,17.38
2022-11-22T02:21:00.160Z,17.79
2022-11-22T02:21:54.135Z,20.01
2022-11-22T02:23:21.143Z,19.31
2022-11-22T02:24:33.159Z,19.95
2022-11-22T02:25:54.127Z,19.96
2022-11-22T02:26:48.116Z,19.74
2022-11-22T02:27:28.127Z,19.36
2022-11-22T02:28:08.173Z,21.09
2022-11-22T02:28:49.158Z,22.13
2022-11-22T02:29:29.382Z,20.66
2022-11-22T02:30:09.129Z,22.14
2022-11-22T02:30:49.209Z,22.55
2022-11-22T02:31:51.127Z,21.30
2022-11-22T02:32:38.124Z,21.59
2022-11-22T02:33:32.133Z,21.21
2022-11-22T02:34:27.129Z,21.19
2022-11-22T02:35:42.102Z,21.88
2022-11-22T02:36:36.115Z,22.13
2022-11-22T02:37:39.137Z,29.58
2022-11-22T02:38:44.125Z,45.10
2022-11-22T02:39:42.144Z,42.21
2022-11-22T02:40:37.139Z,32.20
2022-11-22T02:41:31.110Z,31.55
2022-11-22T02:42:26.113Z,27.05
2022-11-22T02:43:14.140Z,24.27
2022-11-22T02:43:54.201Z,21.91
2022-11-22T02:44:34.117Z,22.21
2022-11-22T02:45:15.143Z,22.10
2022-11-22T02:45:55.114Z,21.95
2022-11-22T02:46:35.265Z,22.26
2022-11-22T02:47:16.128Z,23.96
2022-11-22T02:47:57.142Z,23.35
2022-11-22T02:48:37.119Z,24.40
2022-11-22T02:49:17.322Z,25.30
2022-11-22T02:50:00.119Z,24.45
2022-11-22T02:50:40.197Z,25.79
2022-11-22T02:51:23.086Z,25.99
2022-11-22T02:52:03.138Z,26.13
2022-11-22T02:52:44.098Z,25.88
2022-11-22T02:53:24.164Z,26.02
2022-11-22T02:54:05.136Z,26.64
2022-11-22T02:54:45.221Z,26.90
2022-11-22T02:55:25.104Z,27.00
2022-11-22T02:56:05.222Z,27.69
2022-11-22T02:56:45.131Z,28.19
2022-11-22T02:57:25.160Z,27.21
2022-11-22T02:58:05.101Z,27.16
2022-11-22T02:58:45.134Z,28.13
2022-11-22T02:59:26.106Z,25.94
2022-11-22T03:00:06.126Z,27.35
2022-11-22T03:00:47.198Z,27.67
2022-11-22T03:01:27.127Z,27.67
2022-11-22T03:02:08.120Z,27.48
2022-11-22T03:02:48.161Z,27.52
2022-11-22T03:03:28.103Z,27.75
2022-11-22T03:04:08.145Z,29.05
2022-11-22T03:04:48.128Z,28.61
2022-11-22T03:05:28.166Z,26.36
2022-11-22T03:06:09.145Z,26.06
2022-11-22T03:06:51.649Z,26.25
2022-11-22T03:07:32.160Z,26.77
2022-11-22T03:08:12.177Z,28.90
2022-11-22T03:08:56.734Z,28.45
2022-11-22T03:09:38.147Z,28.27
2022-11-22T03:10:19.148Z,28.86
2022-11-22T03:10:59.211Z,29.48
2022-11-22T03:11:40.070Z,29.29
2022-11-22T03:12:20.163Z,28.59
2022-11-22T03:13:01.108Z,29.92
2022-11-22T03:13:41.197Z,30.00
2022-11-22T03:14:23.075Z,29.09
2022-11-22T03:15:03.180Z,29.16
2022-11-22T03:15:43.108Z,29.91
2022-11-22T03:16:23.123Z,30.42
2022-11-22T03:17:03.083Z,31.66
2022-11-22T03:17:43.198Z,32.44
2022-11-22T03:18:23.083Z,32.29
2022-11-22T03:19:03.257Z,31.80
2022-11-22T03:19:44.071Z,31.25
2022-11-22T03:20:24.366Z,31.56
2022-11-22T03:21:10.069Z,33.71
2022-11-22T03:21:51.208Z,33.71
2022-11-22T03:22:32.060Z,32.33
2022-11-22T03:23:12.127Z,31.96
2022-11-22T03:23:52.075Z,31.35
2022-11-22T03:24:32.129Z,31.90
2022-11-22T03:25:14.115Z,32.14
2022-11-22T03:25:54.089Z,31.80
2022-11-22T03:26:34.063Z,32.04
2022-11-22T03:27:14.080Z,32.50
2022-11-22T03:27:55.118Z,32.01
2022-11-22T03:28:35.176Z,33.09
2022-11-22T03:29:15.054Z,32.84
2022-11-22T03:29:55.147Z,32.46
2022-11-22T03:30:36.066Z,32.51
2022-11-22T03:31:16.097Z,32.92
2022-11-22T03:31:57.079Z,32.94
2022-11-22T03:32:37.134Z,33.17
2022-11-22T03:33:18.068Z,33.20
2022-11-22T03:33:58.110Z,32.05
2022-11-22T03:34:39.106Z,32.63
2022-11-22T03:35:20.191Z,33.29
2022-11-22T03:36:04.108Z,32.40
2022-11-22T03:36:44.212Z,31.79
2022-11-22T03:37:24.086Z,32.22
2022-11-22T03:38:04.235Z,32.39
2022-11-22T03:38:45.050Z,34.05
2022-11-22T03:39:25.197Z,32.53
2022-11-22T03:40:06.090Z,31.81
2022-11-22T03:40:46.093Z,32.50
2022-11-22T03:41:27.075Z,30.69
2022-11-22T03:42:07.197Z,30.29
2022-11-22T03:42:47.072Z,31.19
2022-11-22T03:43:28.320Z,32.79
2022-11-22T03:44:09.053Z,31.45
2022-11-22T03:44:49.121Z,33.45
2022-11-22T03:45:30.074Z,34.06
2022-11-22T03:46:10.304Z,33.44
2022-11-22T03:46:50.026Z,33.53
2022-11-22T03:47:30.145Z,33.79
2022-11-22T03:48:11.079Z,36.09
2022-11-22T03:48:52.183Z,35.65
2022-11-22T03:49:33.364Z,35.47
2022-11-22T03:50:15.079Z,37.35
2022-11-22T03:50:55.108Z,37.34
2022-11-22T03:51:36.451Z,37.63
2022-11-22T03:52:17.039Z,38.44
2022-11-22T03:52:57.112Z,39.10
2022-11-22T03:53:37.043Z,39.94
2022-11-22T03:54:18.073Z,39.79
2022-11-22T03:54:59.077Z,39.59
2022-11-22T03:55:40.245Z,39.47
2022-11-22T03:56:20.053Z,39.10
2022-11-22T03:57:00.232Z,37.59
2022-11-22T03:57:40.029Z,37.84
2022-11-22T03:58:20.065Z,38.22
2022-11-22T03:59:01.083Z,38.34
2022-11-22T03:59:41.128Z,41.15
2022-11-22T04:00:22.025Z,39.54
2022-11-22T04:01:03.326Z,38.44
2022-11-22T04:01:44.141Z,39.16
2022-11-22T04:02:24.072Z,41.21
2022-11-22T04:03:04.028Z,41.99
2022-11-22T04:03:44.125Z,41.79
2022-11-22T04:04:25.097Z,40.06
2022-11-22T04:05:05.099Z,39.61
2022-11-22T04:05:45.032Z,39.69
2022-11-22T04:06:25.162Z,40.24
2022-11-22T04:07:05.092Z,39.60
2022-11-22T04:07:45.224Z,41.28
2022-11-22T04:08:26.009Z,41.14
2022-11-22T04:09:06.139Z,40.42
2022-11-22T04:09:47.179Z,40.36
2022-11-22T04:10:27.182Z,41.45
2022-11-22T04:11:08.027Z,41.41
2022-11-22T04:11:48.161Z,41.28
2022-11-22T04:12:28.033Z,42.79
2022-11-22T04:13:09.085Z,43.13
2022-11-22T04:14:08.055Z,42.41
2022-11-22T04:15:13.075Z,43.69
2022-11-22T04:16:10.073Z,44.13
2022-11-22T04:17:04.017Z,44.35
2022-11-22T04:18:00.004Z,44.09
2022-11-22T04:18:54.010Z,42.74
2022-11-22T04:20:08.095Z,43.71
2022-11-22T04:21:07.025Z,42.99
2022-11-22T04:22:01.073Z,43.05
2022-11-22T04:22:55.035Z,44.01
2022-11-22T04:23:50.022Z,42.28
2022-11-22T04:25:02.002Z,42.01
2022-11-22T04:26:05.979Z,42.28
2022-11-22T04:26:47.053Z,40.33
2022-11-22T04:27:27.039Z,42.04
2022-11-22T04:28:08.083Z,40.84
2022-11-22T04:29:08.746Z,40.96
2022-11-22T04:29:49.006Z,40.00
2022-11-22T04:30:48.811Z,39.51
2022-11-22T04:31:48.041Z,41.81
2022-11-22T04:32:47.577Z,40.55
2022-11-22T04:33:30.016Z,38.89
2022-11-22T04:34:10.069Z,38.80
2022-11-22T04:34:50.000Z,39.95
2022-11-22T04:35:30.148Z,39.36
2022-11-22T04:36:13.425Z,38.25
2022-11-22T04:37:01.172Z,38.71
2022-11-22T04:37:55.991Z,38.05
2022-11-22T04:38:50.039Z,36.53
2022-11-22T04:39:44.104Z,36.60
2022-11-22T04:40:38.040Z,37.19
2022-11-22T04:41:31.990Z,38.08
2022-11-22T04:42:53.994Z,38.28
2022-11-22T04:43:53.691Z,35.85
2022-11-22T04:44:46.975Z,37.55
2022-11-22T04:45:21.093Z,39.00
2022-11-22T04:46:08.988Z,38.49
2022-11-22T04:46:43.072Z,39.28
2022-11-22T04:47:50.497Z,37.70
2022-11-22T04:48:31.995Z,38.84
2022-11-22T04:49:25.999Z,39.47
2022-11-22T04:50:41.119Z,41.20
2022-11-22T04:51:53.006Z,43.17
2022-11-22T04:53:01.992Z,45.04
2022-11-22T04:53:51.004Z,41.85
2022-11-22T04:54:25.039Z,41.99
2022-11-22T04:55:12.983Z,41.76
2022-11-22T04:55:47.071Z,41.39
2022-11-22T04:56:33.985Z,42.33
2022-11-22T04:57:07.986Z,42.67
2022-11-22T04:57:59.642Z,41.46
2022-11-22T04:58:34.021Z,42.36
2022-11-22T04:59:14.985Z,40.40
2022-11-22T04:59:55.031Z,40.64
2022-11-22T05:00:36.997Z,40.70
2022-11-22T05:01:18.409Z,42.76
2022-11-22T05:01:59.983Z,43.10
2022-11-22T05:02:40.068Z,42.49
2022-11-22T05:03:19.978Z,42.28
2022-11-22T05:04:01.065Z,42.20
2022-11-22T05:04:45.113Z,43.24
2022-11-22T05:05:31.334Z,43.16
2022-11-22T05:06:11.958Z,43.05
2022-11-22T05:06:52.033Z,43.11
2022-11-22T05:07:33.001Z,43.55
2022-11-22T05:08:14.046Z,45.69
2022-11-22T05:08:54.981Z,47.05
2022-11-22T05:09:36.102Z,44.95
2022-11-22T05:10:21.334Z,44.58
2022-11-22T05:11:05.048Z,44.80
2022-11-22T05:11:44.972Z,46.69
2022-11-22T05:12:25.105Z,45.39
2022-11-22T05:13:04.964Z,44.45
2022-11-22T05:13:47.034Z,44.42
2022-11-22T05:14:27.948Z,44.31
2022-11-22T05:15:09.024Z,46.70
2022-11-22T05:15:49.954Z,46.49
2022-11-22T05:16:30.100Z,47.97
2022-11-22T05:17:13.352Z,48.33
2022-11-22T05:17:54.094Z,49.04
2022-11-22T05:18:35.988Z,51.11
2022-11-22T05:19:16.989Z,48.08
2022-11-22T05:19:56.964Z,46.70
2022-11-22T05:20:37.018Z,48.90
2022-11-22T05:21:19.969Z,48.49
2022-11-22T05:22:01.047Z,48.61
2022-11-22T05:22:59.964Z,48.81
2022-11-22T05:23:55.273Z,49.69
2022-11-22T05:24:35.924Z,49.35
2022-11-22T05:25:15.970Z,53.45
2022-11-22T05:25:55.928Z,50.28
2022-11-22T05:26:41.950Z,51.72
2022-11-22T05:27:16.104Z,53.14
2022-11-22T05:28:02.962Z,51.42
2022-11-22T05:28:39.437Z,51.59
2022-11-22T05:29:25.940Z,51.04
2022-11-22T05:30:00.046Z,53.19
2022-11-22T05:30:47.959Z,53.35
2022-11-22T05:31:28.263Z,52.09
2022-11-22T05:32:09.001Z,54.04
2022-11-22T05:32:49.095Z,55.00
2022-11-22T05:33:29.942Z,56.59
2022-11-22T05:34:10.988Z,59.22
2022-11-22T05:34:50.940Z,61.35
2022-11-22T05:35:31.022Z,59.15
2022-11-22T05:36:13.114Z,57.84
2022-11-22T05:36:53.004Z,55.11
2022-11-22T05:37:33.937Z,53.69
2022-11-22T05:38:14.052Z,55.33
2022-11-22T05:38:54.947Z,54.03
2022-11-22T05:39:34.975Z,54.34
2022-11-22T05:40:16.922Z,55.74
2022-11-22T05:40:56.963Z,55.26
2022-11-22T05:41:36.899Z,53.20
2022-11-22T05:42:30.929Z,50.84
2022-11-22T05:43:11.919Z,50.54
2022-11-22T05:43:52.984Z,49.60
2022-11-22T05:44:33.942Z,51.06
2022-11-22T05:45:15.021Z,50.19
2022-11-22T05:45:54.958Z,46.85
2022-11-22T05:46:36.976Z,46.94
2022-11-22T05:47:16.981Z,47.53
2022-11-22T05:47:56.995Z,47.10
2022-11-22T05:48:37.929Z,44.89
2022-11-22T05:49:18.047Z,43.85
2022-11-22T05:49:58.933Z,43.83
2022-11-22T05:50:38.948Z,45.14
2022-11-22T05:51:22.918Z,44.66
2022-11-22T05:52:02.975Z,45.41
2022-11-22T05:52:43.915Z,45.26
2022-11-22T05:53:24.978Z,44.75
2022-11-22T05:54:05.973Z,40.90
2022-11-22T05:54:46.013Z,38.19
2022-11-22T05:55:25.912Z,37.13
2022-11-22T05:56:14.000Z,37.92
2022-11-22T05:56:54.911Z,38.75
2022-11-22T05:57:34.976Z,38.56
2022-11-22T05:58:15.966Z,35.80
2022-11-22T05:58:56.994Z,35.47
2022-11-22T05:59:42.571Z,37.14
2022-11-22T06:00:25.442Z,36.45
2022-11-22T06:01:20.893Z,36.78
2022-11-22T06:02:01.030Z,37.67
2022-11-22T06:02:41.946Z,37.13
2022-11-22T06:03:22.124Z,36.75
2022-11-22T06:04:02.889Z,37.89
2022-11-22T06:04:49.956Z,39.22
2022-11-22T06:05:44.923Z,38.19
2022-11-22T06:06:38.936Z,38.30
2022-11-22T06:07:33.940Z,37.26
2022-11-22T06:08:27.914Z,37.42
2022-11-22T06:09:21.942Z,39.59
2022-11-22T06:10:08.920Z,38.03
2022-11-22T06:10:42.975Z,38.46
2022-11-22T06:11:32.912Z,40.05
2022-11-22T06:12:07.022Z,40.08
2022-11-22T06:12:53.920Z,39.86
2022-11-22T06:13:27.950Z,40.83
2022-11-22T06:14:15.915Z,42.59
2022-11-22T06:14:52.005Z,41.24
2022-11-22T06:15:32.967Z,40.21
2022-11-22T06:16:15.024Z,41.28
2022-11-22T06:16:58.040Z,42.99
2022-11-22T06:17:38.919Z,43.28
2022-11-22T06:18:19.020Z,43.00
2022-11-22T06:19:00.005Z,43.81
2022-11-22T06:19:39.914Z,44.46
2022-11-22T06:20:19.955Z,43.75
2022-11-22T06:21:07.894Z,44.25
2022-11-22T06:21:48.906Z,43.28
2022-11-22T06:22:28.901Z,42.74
2022-11-22T06:23:08.937Z,44.19
2022-11-22T06:23:49.882Z,45.34
2022-11-22T06:24:29.993Z,44.21
2022-11-22T06:25:10.904Z,44.36
2022-11-22T06:25:52.246Z,45.50
2022-11-22T06:26:46.916Z,44.00
2022-11-22T06:27:41.860Z,44.05
2022-11-22T06:28:35.903Z,44.76
2022-11-22T06:29:30.103Z,46.01
2022-11-22T06:30:24.984Z,45.39
2022-11-22T06:31:24.906Z,44.05
2022-11-22T06:32:11.894Z,44.88
2022-11-22T06:32:45.896Z,47.03
2022-11-22T06:33:32.892Z,47.26
2022-11-22T06:34:06.922Z,49.91
2022-11-22T06:34:53.893Z,51.81
2022-11-22T06:35:28.109Z,51.60
2022-11-22T06:36:30.893Z,53.13
2022-11-22T06:37:05.062Z,52.51
2022-11-22T06:37:45.892Z,52.66
2022-11-22T06:38:25.959Z,54.01
2022-11-22T06:39:06.927Z,56.54
2022-11-22T06:39:47.922Z,58.14
2022-11-22T06:40:27.842Z,54.84
2022-11-22T06:41:13.932Z,52.58
2022-11-22T06:41:53.841Z,52.14
2022-11-22T06:42:47.855Z,51.39
2022-11-22T06:43:48.799Z,51.17
2022-11-22T06:44:43.856Z,49.72
2022-11-22T06:45:37.868Z,50.60
2022-11-22T06:46:34.892Z,49.74
2022-11-22T06:47:28.894Z,51.55
2022-11-22T06:48:08.857Z,50.66
2022-11-22T06:48:49.948Z,47.76
2022-11-22T06:49:31.284Z,47.34
2022-11-22T06:50:12.760Z,48.55
2022-11-22T06:50:54.939Z,48.26
2022-11-22T06:51:36.948Z,49.08
2022-11-22T06:52:17.902Z,48.99
2022-11-22T06:52:58.866Z,48.70
2022-11-22T06:53:48.971Z,45.85
2022-11-22T06:54:29.901Z,45.60
2022-11-22T06:55:34.505Z,48.28
2022-11-22T06:56:20.943Z,50.09
2022-11-22T06:57:01.858Z,48.69
2022-11-22T06:57:41.990Z,48.06
2022-11-22T06:58:21.852Z,47.88
2022-11-22T06:59:03.936Z,47.38
2022-11-22T06:59:37.936Z,45.88
2022-11-22T07:00:25.853Z,48.39
2022-11-22T07:00:59.977Z,48.19
2022-11-22T07:01:46.932Z,46.40
2022-11-22T07:02:21.014Z,47.49
2022-11-22T07:03:07.847Z,47.13
2022-11-22T07:03:42.895Z,46.09
2022-11-22T07:04:23.888Z,45.28
2022-11-22T07:05:24.412Z,46.69
2022-11-22T07:06:04.009Z,45.94
2022-11-22T07:06:44.885Z,44.17
2022-11-22T07:07:24.920Z,42.49
2022-11-22T07:08:12.068Z,44.41
2022-11-22T07:08:54.846Z,44.24
2022-11-22T07:09:41.883Z,44.86
2022-11-22T07:10:35.954Z,42.83
2022-11-22T07:11:36.848Z,43.80
2022-11-22T07:12:30.826Z,45.79
2022-11-22T07:13:24.815Z,43.46
2022-11-22T07:14:19.864Z,45.89
2022-11-22T07:15:06.851Z,44.69
2022-11-22T07:15:40.840Z,45.58
2022-11-22T07:16:28.848Z,46.92
2022-11-22T07:17:02.889Z,45.26
2022-11-22T07:17:49.848Z,43.14
2022-11-22T07:18:23.927Z,43.86
2022-11-22T07:19:11.826Z,41.30
2022-11-22T07:19:45.904Z,41.35
2022-11-22T07:20:26.911Z,41.81
2022-11-22T07:21:15.344Z,41.31
2022-11-22T07:21:56.825Z,40.35
2022-11-22T07:22:36.892Z,38.54
2022-11-22T07:23:18.851Z,38.35
2022-11-22T07:24:01.973Z,39.05
2022-11-22T07:24:41.814Z,40.17
2022-11-22T07:25:21.871Z,40.80
2022-11-22T07:26:02.823Z,42.09
2022-11-22T07:26:42.880Z,40.39
2022-11-22T07:27:22.809Z,39.46
2022-11-22T07:28:02.831Z,42.53
2022-11-22T07:28:43.816Z,43.84
2022-11-22T07:29:37.910Z,44.76
2022-11-22T07:30:31.813Z,43.83
2022-11-22T07:31:20.830Z,41.03
2022-11-22T07:31:54.880Z,40.14
2022-11-22T07:32:42.827Z,40.95
2022-11-22T07:33:17.020Z,41.54
2022-11-22T07:34:04.810Z,42.61
2022-11-22T07:34:40.274Z,40.65
2022-11-22T07:35:26.819Z,39.88
2022-11-22T07:36:01.040Z,40.72
2022-11-22T07:36:41.846Z,42.53
2022-11-22T07:37:21.869Z,41.25
2022-11-22T07:38:01.821Z,40.15
2022-11-22T07:38:42.920Z,39.41
2022-11-22T07:39:22.815Z,40.55
2022-11-22T07:40:03.107Z,39.06
2022-11-22T07:40:43.784Z,37.78
2022-11-22T07:41:25.912Z,37.70
2022-11-22T07:42:06.868Z,36.89
2022-11-22T07:42:46.942Z,37.06
2022-11-22T07:43:27.797Z,36.67
2022-11-22T07:44:07.934Z,37.30
2022-11-22T07:44:47.776Z,36.19
2022-11-22T07:45:29.213Z,34.42
2022-11-22T07:46:12.794Z,35.96
2022-11-22T07:46:53.993Z,37.90
2022-11-22T07:47:34.860Z,38.30
2022-11-22T07:48:16.062Z,37.79
2022-11-22T07:48:56.802Z,36.49
2022-11-22T07:49:36.940Z,38.13
2022-11-22T07:50:18.834Z,37.91
2022-11-22T07:50:58.982Z,37.13
2022-11-22T07:51:39.799Z,37.63
2022-11-22T07:52:19.984Z,36.64
2022-11-22T07:53:11.481Z,37.40
2022-11-22T07:53:52.862Z,37.10
2022-11-22T07:54:33.777Z,35.54
2022-11-22T07:55:14.867Z,37.67
2022-11-22T07:55:55.812Z,36.36
2022-11-22T07:56:37.865Z,37.58
2022-11-22T07:57:18.799Z,36.03
2022-11-22T07:58:05.050Z,34.74
2022-11-22T07:58:45.815Z,33.64
2022-11-22T07:59:27.049Z,35.15
2022-11-22T08:00:08.783Z,34.86
2022-11-22T08:00:49.833Z,36.05
2022-11-22T08:01:30.843Z,37.71
2022-11-22T08:02:10.898Z,36.01
2022-11-22T08:02:51.790Z,35.88
2022-11-22T08:03:31.873Z,39.50
2022-11-22T08:04:11.824Z,39.66
2022-11-22T08:04:51.920Z,36.35
2022-11-22T08:05:32.770Z,38.46
2022-11-22T08:06:15.904Z,36.49
2022-11-22T08:06:55.767Z,33.66
2022-11-22T08:07:35.908Z,35.13
2022-11-22T08:08:15.803Z,35.17
2022-11-22T08:09:00.490Z,36.24
2022-11-22T08:09:42.788Z,33.56
2022-11-22T08:10:23.824Z,33.13
2022-11-22T08:11:04.766Z,34.35
2022-11-22T08:11:44.813Z,34.47
2022-11-22T08:12:24.743Z,34.71
2022-11-22T08:13:06.800Z,34.39
2022-11-22T08:13:47.752Z,35.44
2022-11-22T08:14:27.842Z,35.70
2022-11-22T08:15:09.811Z,35.69
2022-11-22T08:15:54.647Z,35.58
2022-11-22T08:16:35.780Z,35.76
2022-11-22T08:17:15.838Z,34.41
2022-11-22T08:17:55.741Z,33.26
2022-11-22T08:18:35.872Z,32.65
2022-11-22T08:19:16.763Z,34.47
2022-11-22T08:19:56.827Z,32.99
2022-11-22T08:20:37.793Z,31.49
2022-11-22T08:21:19.945Z,31.99
2022-11-22T08:22:00.765Z,32.01
2022-11-22T08:22:40.966Z,32.30
2022-11-22T08:23:20.760Z,31.66
2022-11-22T08:24:06.033Z,33.00
2022-11-22T08:24:45.765Z,32.66
2022-11-22T08:25:26.826Z,32.49
2022-11-22T08:26:06.800Z,32.15
2022-11-22T08:26:46.772Z,31.30
2022-11-22T08:27:26.763Z,32.28
2022-11-22T08:28:06.836Z,31.39
2022-11-22T08:28:48.751Z,30.36
2022-11-22T08:29:42.795Z,32.83
2022-11-22T08:30:36.750Z,35.09
2022-11-22T08:31:25.763Z,35.58
2022-11-22T08:31:59.806Z,34.29
2022-11-22T08:32:46.720Z,33.22
2022-11-22T08:33:20.770Z,33.09
2022-11-22T08:34:07.757Z,33.31
2022-11-22T08:34:46.870Z,35.16
2022-11-22T08:35:33.738Z,34.96
2022-11-22T08:36:07.861Z,34.76
2022-11-22T08:36:47.756Z,35.41
2022-11-22T08:37:27.781Z,35.33
2022-11-22T08:38:07.760Z,34.81
2022-11-22T08:38:48.808Z,34.53
2022-11-22T08:39:29.883Z,36.42
2022-11-22T08:40:10.798Z,35.99
2022-11-22T08:40:50.720Z,33.40
2022-11-22T08:41:31.801Z,34.70
2022-11-22T08:42:13.756Z,36.69
2022-11-22T08:42:53.811Z,35.94
2022-11-22T08:43:34.714Z,34.61
2022-11-22T08:44:14.759Z,35.63
2022-11-22T08:44:54.714Z,37.70
2022-11-22T08:45:34.790Z,35.36
2022-11-22T08:46:14.712Z,34.53
2022-11-22T08:46:55.776Z,34.75
2022-11-22T08:47:35.760Z,35.36
2022-11-22T08:48:21.893Z,35.31
2022-11-22T08:49:03.708Z,33.95
2022-11-22T08:49:43.779Z,33.30
2022-11-22T08:50:24.800Z,34.17
2022-11-22T08:51:11.792Z,34.84
2022-11-22T08:51:52.704Z,34.64
2022-11-22T08:52:32.911Z,32.58
2022-11-22T08:53:12.743Z,32.13
2022-11-22T08:53:53.820Z,33.28
2022-11-22T08:54:37.453Z,35.13
2022-11-22T08:55:17.780Z,34.66
2022-11-22T08:55:58.704Z,33.53
2022-11-22T08:56:38.772Z,34.31
2022-11-22T08:57:18.752Z,34.38
2022-11-22T08:57:58.793Z,34.59
2022-11-22T08:58:40.754Z,36.88
2022-11-22T08:59:20.813Z,35.81
2022-11-22T09:00:00.736Z,36.34
2022-11-22T09:00:40.795Z,38.63
2022-11-22T09:02:25.724Z,38.61
2022-11-22T09:02:59.809Z,38.38
2022-11-22T09:03:47.737Z,37.38
2022-11-22T09:04:21.717Z,36.05
2022-11-22T09:05:08.896Z,33.59
2022-11-22T09:09:02.787Z,34.42
2022-11-22T09:09:45.203Z,34.01
2022-11-22T09:10:32.699Z,33.11
2022-11-22T09:11:11.713Z,33.17
2022-11-22T09:11:58.688Z,32.80
2022-11-22T09:12:32.740Z,33.26
2022-11-22T09:13:19.754Z,32.88
2022-11-22T09:14:00.726Z,33.25
2022-11-22T09:14:54.720Z,33.14
2022-11-22T09:15:48.694Z,33.25
2022-11-22T09:16:42.685Z,34.56
2022-11-22T09:17:36.718Z,34.29
2022-11-22T09:18:30.669Z,32.95
2022-11-22T09:19:17.673Z,34.19
2022-11-22T09:19:51.836Z,34.90
2022-11-22T09:20:38.680Z,36.13
2022-11-22T09:21:17.892Z,35.66
2022-11-22T09:22:04.669Z,35.56
2022-11-22T09:22:38.722Z,34.40
2022-11-22T09:23:25.669Z,35.90